createdAt,value
2022-12-25T00:01:09.953Z,101234.84
2022-12-25T00:03:37.177Z,101232.56
2022-12-25T00:06:04.076Z,101234.59
2022-12-25T00:08:30.916Z,101237.09
2022-12-25T00:11:01.638Z,101237.38
2022-12-25T00:13:28.591Z,101237.19
2022-12-25T00:15:55.447Z,101238.78
2022-12-25T00:18:22.583Z,101241.75
2022-12-25T00:21:00.796Z,101235.91
2022-12-25T00:23:27.872Z,101231.00
2022-12-25T00:25:55.457Z,101237.78
2022-12-25T00:28:22.911Z,101241.56
2022-12-25T00:30:49.447Z,101251.84
2022-12-25T00:33:16.108Z,101235.19
2022-12-25T00:35:42.637Z,101235.00
2022-12-25T00:38:09.396Z,101239.19
2022-12-25T00:40:43.099Z,101244.44
2022-12-25T00:43:09.987Z,101257.28
2022-12-25T00:45:36.526Z,101254.72
2022-12-25T00:48:03.338Z,101254.22
2022-12-25T00:50:29.876Z,101257.19
2022-12-25T00:52:56.389Z,101269.81
2022-12-25T00:55:22.938Z,101272.50
2022-12-25T00:57:49.472Z,101278.97
2022-12-25T01:00:16.208Z,101275.88
2022-12-25T01:02:42.942Z,101284.59
2022-12-25T01:05:09.719Z,101275.56
2022-12-25T01:07:36.214Z,101269.69
2022-12-25T01:10:21.397Z,101270.50
2022-12-25T01:12:47.948Z,101284.19
2022-12-25T01:15:14.535Z,101283.09
2022-12-25T01:17:42.119Z,101285.59
2022-12-25T01:20:09.336Z,101279.22
2022-12-25T01:22:35.943Z,101297.78
2022-12-25T01:25:02.706Z,101304.06
2022-12-25T01:27:29.347Z,101310.31
2022-12-25T01:29:55.834Z,101308.59
2022-12-25T01:32:22.385Z,101304.16
2022-12-25T01:34:53.859Z,101305.34
2022-12-25T01:37:22.351Z,101316.72
2022-12-25T01:39:48.920Z,101314.69
2022-12-25T01:42:20.217Z,101303.53
2022-12-25T01:44:46.592Z,101311.16
2022-12-25T01:47:13.563Z,101315.78
2022-12-25T01:49:41.709Z,101316.16
2022-12-25T01:52:12.285Z,101320.50
2022-12-25T01:54:45.284Z,101329.16
2022-12-25T01:57:17.844Z,101329.75
2022-12-25T01:59:44.588Z,101330.91
2022-12-25T02:02:11.765Z,101335.78
2022-12-25T02:04:56.452Z,101343.38
2022-12-25T02:07:24.786Z,101337.78
2022-12-25T02:09:51.968Z,101334.88
2022-12-25T02:12:21.210Z,101332.28
2022-12-25T02:14:49.701Z,101331.22
2022-12-25T02:17:33.259Z,101334.78
2022-12-25T02:20:21.513Z,101326.50
2022-12-25T02:23:23.323Z,101329.81
2022-12-25T02:26:27.449Z,101335.78
2022-12-25T02:29:15.749Z,101337.69
2022-12-25T02:31:48.469Z,101338.28
2022-12-25T02:34:19.011Z,101349.84
2022-12-25T02:36:50.161Z,101349.56
2022-12-25T02:39:48.260Z,101364.63
2022-12-25T02:42:22.560Z,101368.66
2022-12-25T02:45:08.814Z,101355.81
2022-12-25T02:47:54.583Z,101360.44
2022-12-25T02:50:40.061Z,101360.13
2022-12-25T02:53:26.294Z,101353.97
2022-12-25T02:56:11.869Z,101358.47
2022-12-25T02:58:58.188Z,101356.81
2022-12-25T03:01:47.162Z,101355.75
2022-12-25T03:04:35.801Z,101353.56
2022-12-25T03:07:12.265Z,101352.78
2022-12-25T03:10:00.491Z,101352.84
2022-12-25T03:13:10.556Z,101353.16
2022-12-25T03:15:55.552Z,101353.72
2022-12-25T03:18:24.436Z,101360.72
2022-12-25T03:21:10.495Z,101352.72
2022-12-25T03:23:56.910Z,101363.44
2022-12-25T03:26:43.674Z,101366.16
2022-12-25T03:29:10.677Z,101371.28
2022-12-25T03:31:47.038Z,101364.09
2022-12-25T03:34:50.934Z,101362.19
2022-12-25T03:37:33.251Z,101359.00
2022-12-25T03:40:29.139Z,101370.00
2022-12-25T03:43:20.797Z,101371.59
2022-12-25T03:46:10.127Z,101374.84
2022-12-25T03:48:59.439Z,101384.50
2022-12-25T03:51:49.268Z,101380.78
2022-12-25T03:54:38.003Z,101382.41
2022-12-25T03:57:23.746Z,101386.44
2022-12-25T04:00:09.026Z,101381.91
2022-12-25T04:02:55.239Z,101389.41
2022-12-25T04:05:40.186Z,101385.41
2022-12-25T04:08:25.429Z,101384.66
2022-12-25T04:11:10.415Z,101384.09
2022-12-25T04:13:55.665Z,101389.22
2022-12-25T04:16:40.649Z,101393.50
2022-12-25T04:19:25.959Z,101397.00
2022-12-25T04:22:10.854Z,101394.31
2022-12-25T04:24:56.058Z,101394.34
2022-12-25T04:27:41.299Z,101395.94
2022-12-25T04:30:27.039Z,101395.41
2022-12-25T04:33:16.951Z,101395.97
2022-12-25T04:36:08.106Z,101398.34
2022-12-25T04:38:34.751Z,101404.28
2022-12-25T04:41:01.821Z,101408.53
2022-12-25T04:43:28.620Z,101409.59
2022-12-25T04:45:56.501Z,101407.19
2022-12-25T04:48:23.160Z,101409.88
2022-12-25T04:50:49.705Z,101409.06
2022-12-25T04:53:17.340Z,101412.28
2022-12-25T04:55:43.979Z,101402.94
2022-12-25T04:58:11.101Z,101404.03
2022-12-25T05:00:37.621Z,101402.44
2022-12-25T05:03:04.452Z,101406.16
2022-12-25T05:05:31.042Z,101400.28
2022-12-25T05:07:58.069Z,101401.59
2022-12-25T05:10:24.615Z,101406.38
2022-12-25T05:12:51.167Z,101401.56
2022-12-25T05:15:18.042Z,101404.50
2022-12-25T05:17:44.587Z,101406.91
2022-12-25T05:20:14.073Z,101403.69
2022-12-25T05:22:42.149Z,101408.25
2022-12-25T05:25:08.818Z,101400.50
2022-12-25T05:27:35.345Z,101395.16
2022-12-25T05:30:01.845Z,101395.41
2022-12-25T05:32:28.388Z,101396.47
2022-12-25T05:34:55.433Z,101399.66
2022-12-25T05:37:22.054Z,101405.25
2022-12-25T05:39:48.561Z,101398.03
2022-12-25T05:42:15.201Z,101402.56
2022-12-25T05:44:41.702Z,101393.78
2022-12-25T05:47:08.249Z,101384.69
2022-12-25T05:49:34.726Z,101388.44
2022-12-25T05:52:01.235Z,101388.94
2022-12-25T05:54:27.795Z,101376.66
2022-12-25T05:56:54.333Z,101382.25
2022-12-25T05:59:20.931Z,101382.25
2022-12-25T06:01:47.965Z,101379.34
2022-12-25T06:04:14.640Z,101383.34
2022-12-25T06:06:41.518Z,101376.13
2022-12-25T06:09:08.991Z,101372.94
2022-12-25T06:11:35.467Z,101383.88
2022-12-25T06:14:01.992Z,101382.25
2022-12-25T06:16:34.028Z,101375.56
2022-12-25T06:19:04.149Z,101367.78
2022-12-25T06:21:30.770Z,101366.94
2022-12-25T06:23:57.371Z,101357.34
2022-12-25T06:26:23.908Z,101362.69
2022-12-25T06:28:50.405Z,101373.38
2022-12-25T06:31:22.451Z,101380.59
2022-12-25T06:33:49.536Z,101378.72
2022-12-25T06:36:21.977Z,101373.16
2022-12-25T06:38:48.838Z,101379.88
2022-12-25T06:41:17.777Z,101377.75
2022-12-25T06:43:48.122Z,101380.94
2022-12-25T06:46:14.873Z,101380.41
2022-12-25T06:48:47.858Z,101376.41
2022-12-25T06:51:24.526Z,101382.50
2022-12-25T06:53:52.124Z,101392.97
2022-12-25T06:56:21.202Z,101392.97
2022-12-25T06:58:53.085Z,101414.41
2022-12-25T07:01:24.176Z,101423.75
2022-12-25T07:03:54.853Z,101426.75
2022-12-25T07:06:21.575Z,101416.34
2022-12-25T07:08:48.228Z,101412.56
2022-12-25T07:11:14.991Z,101418.75
2022-12-25T07:13:41.676Z,101421.06
2022-12-25T07:16:08.362Z,101421.31
2022-12-25T07:18:35.175Z,101422.41
2022-12-25T07:21:09.734Z,101429.09
2022-12-25T07:23:37.218Z,101425.41
2022-12-25T07:26:03.815Z,101423.25
2022-12-25T07:28:31.227Z,101433.41
2022-12-25T07:31:05.763Z,101432.34
2022-12-25T07:33:32.655Z,101436.09
2022-12-25T07:35:59.158Z,101442.75
2022-12-25T07:38:25.725Z,101444.63
2022-12-25T07:40:52.459Z,101444.88
2022-12-25T07:43:19.021Z,101440.34
2022-12-25T07:45:45.618Z,101452.59
2022-12-25T07:48:16.679Z,101441.97
2022-12-25T07:50:43.646Z,101429.69
2022-12-25T07:53:10.217Z,101428.88
2022-12-25T07:55:36.739Z,101439.78
2022-12-25T07:58:03.269Z,101431.22
2022-12-25T08:00:33.671Z,101437.09
2022-12-25T08:03:00.346Z,101440.56
2022-12-25T08:05:27.123Z,101441.09
2022-12-25T08:07:57.614Z,101437.94
2022-12-25T08:10:24.570Z,101435.06
2022-12-25T08:12:51.979Z,101434.75
2022-12-25T08:15:18.548Z,101440.59
2022-12-25T08:17:45.045Z,101433.06
2022-12-25T08:20:11.889Z,101435.47
2022-12-25T08:22:38.396Z,101435.72
2022-12-25T08:25:05.174Z,101433.28
2022-12-25T08:27:31.782Z,101433.00
2022-12-25T08:29:58.314Z,101424.13
2022-12-25T08:32:24.783Z,101422.00
2022-12-25T08:34:51.487Z,101425.22
2022-12-25T08:37:18.019Z,101424.63
2022-12-25T08:39:44.514Z,101432.06
2022-12-25T08:42:11.032Z,101423.41
2022-12-25T08:44:37.580Z,101421.47
2022-12-25T08:47:04.264Z,101419.25
2022-12-25T08:49:30.819Z,101413.03
2022-12-25T08:51:57.457Z,101403.06
2022-12-25T08:54:24.965Z,101409.69
2022-12-25T08:56:51.479Z,101404.91
2022-12-25T08:59:18.011Z,101397.72
2022-12-25T09:01:44.577Z,101389.81
2022-12-25T09:04:11.176Z,101388.97
2022-12-25T09:06:37.991Z,101391.38
2022-12-25T09:09:04.550Z,101382.22
2022-12-25T09:11:31.052Z,101384.00
2022-12-25T09:13:57.611Z,101387.19
2022-12-25T09:16:24.244Z,101380.16
2022-12-25T09:18:51.164Z,101385.72
2022-12-25T09:21:18.044Z,101379.41
2022-12-25T09:23:44.655Z,101385.44
2022-12-25T09:26:13.231Z,101390.22
2022-12-25T09:28:43.703Z,101397.25
2022-12-25T09:31:13.290Z,101390.44
2022-12-25T09:33:39.880Z,101395.66
2022-12-25T09:36:08.248Z,101386.03
2022-12-25T09:38:35.516Z,101388.13
2022-12-25T09:41:06.303Z,101395.03
2022-12-25T09:43:38.575Z,101389.91
2022-12-25T09:46:07.328Z,101383.44
2022-12-25T09:48:35.294Z,101377.81
2022-12-25T09:51:06.647Z,101372.19
2022-12-25T09:53:41.007Z,101380.06
2022-12-25T09:56:13.631Z,101389.25
2022-12-25T09:58:40.220Z,101376.25
2022-12-25T10:01:12.613Z,101378.31
2022-12-25T10:03:54.793Z,101376.13
2022-12-25T10:06:26.687Z,101374.28
2022-12-25T10:09:10.944Z,101377.09
2022-12-25T10:11:43.720Z,101377.75
2022-12-25T10:14:24.926Z,101377.31
2022-12-25T10:16:56.120Z,101378.47
2022-12-25T10:19:31.414Z,101380.97
2022-12-25T10:22:02.117Z,101381.34
2022-12-25T10:24:34.269Z,101374.88
2022-12-25T10:27:03.425Z,101376.19
2022-12-25T10:29:32.724Z,101370.00
2022-12-25T10:31:59.462Z,101361.75
2022-12-25T10:34:27.749Z,101360.88
2022-12-25T10:36:54.439Z,101356.50
2022-12-25T10:39:23.952Z,101348.94
2022-12-25T10:42:09.054Z,101345.19
2022-12-25T10:44:35.636Z,101336.75
2022-12-25T10:47:03.285Z,101338.25
2022-12-25T10:49:38.850Z,101333.69
2022-12-25T10:52:27.305Z,101337.25
2022-12-25T10:54:54.292Z,101337.66
2022-12-25T10:57:22.811Z,101338.66
2022-12-25T10:59:51.563Z,101335.09
2022-12-25T11:02:38.419Z,101335.56
2022-12-25T11:05:06.655Z,101332.09
2022-12-25T11:07:33.679Z,101335.78
2022-12-25T11:10:05.637Z,101335.47
2022-12-25T11:12:37.409Z,101350.41
2022-12-25T11:15:23.437Z,101346.75
2022-12-25T11:17:49.972Z,101341.28
2022-12-25T11:20:17.657Z,101329.13
2022-12-25T11:22:45.820Z,101336.31
2022-12-25T11:25:22.202Z,101331.72
2022-12-25T11:28:01.986Z,101323.19
2022-12-25T11:30:33.517Z,101337.63
2022-12-25T11:33:05.489Z,101328.38
2022-12-25T11:35:38.052Z,101329.03
2022-12-25T11:38:04.625Z,101308.25
2022-12-25T11:40:41.740Z,101290.13
2022-12-25T11:43:32.103Z,101291.09
2022-12-25T11:46:18.713Z,101286.13
2022-12-25T11:48:56.055Z,101267.66
2022-12-25T11:51:25.578Z,101263.84
2022-12-25T11:53:54.696Z,101242.84
2022-12-25T11:56:25.035Z,101239.97
2022-12-25T11:58:57.376Z,101233.88
2022-12-25T12:01:44.343Z,101230.94
2022-12-25T12:04:21.953Z,101224.06
2022-12-25T12:07:20.911Z,101226.28
2022-12-25T12:10:09.296Z,101228.97
2022-12-25T12:12:48.809Z,101229.44
2022-12-25T12:15:21.997Z,101229.25
2022-12-25T12:17:48.701Z,101233.25
2022-12-25T12:20:33.190Z,101245.16
2022-12-25T12:23:00.980Z,101246.16
2022-12-25T12:25:28.714Z,101232.81
2022-12-25T12:28:04.928Z,101212.16
2022-12-25T12:30:35.650Z,101210.97
2022-12-25T12:33:04.602Z,101203.75
2022-12-25T12:35:36.762Z,101206.34
2022-12-25T12:38:15.696Z,101218.09
2022-12-25T12:40:50.970Z,101215.50
2022-12-25T12:43:41.300Z,101223.88
2022-12-25T12:46:31.648Z,101219.41
2022-12-25T12:49:17.092Z,101208.97
2022-12-25T12:51:43.614Z,101202.38
2022-12-25T12:54:22.185Z,101213.59
2022-12-25T12:56:58.791Z,101210.63
2022-12-25T12:59:26.314Z,101208.91
2022-12-25T13:02:32.033Z,101206.81
2022-12-25T13:05:14.408Z,101200.84
2022-12-25T13:08:10.698Z,101212.69
2022-12-25T13:10:39.505Z,101207.91
2022-12-25T13:13:24.773Z,101214.88
2022-12-25T13:15:52.109Z,101214.28
2022-12-25T13:18:18.840Z,101198.63
2022-12-25T13:20:57.375Z,101197.22
2022-12-25T13:23:30.221Z,101192.66
2022-12-25T13:25:58.910Z,101190.28
2022-12-25T13:28:46.064Z,101192.16
2022-12-25T13:31:19.026Z,101191.97
2022-12-25T13:34:04.161Z,101191.50
2022-12-25T13:36:36.824Z,101187.41
2022-12-25T13:39:07.657Z,101183.13
2022-12-25T13:42:05.044Z,101176.06
2022-12-25T13:44:41.641Z,101164.59
2022-12-25T13:47:25.306Z,101157.94
2022-12-25T13:49:54.251Z,101146.09
2022-12-25T13:52:28.727Z,101153.84
2022-12-25T13:55:04.037Z,101149.25
2022-12-25T13:57:34.235Z,101130.31
2022-12-25T14:00:00.965Z,101139.66
2022-12-25T14:02:31.310Z,101136.66
2022-12-25T14:04:58.132Z,101131.13
2022-12-25T14:07:24.729Z,101135.84
2022-12-25T14:09:54.838Z,101133.81
2022-12-25T14:12:22.194Z,101138.88
2022-12-25T14:14:49.771Z,101147.91
2022-12-25T14:17:16.397Z,101151.22
2022-12-25T14:19:42.896Z,101150.75
2022-12-25T14:22:12.200Z,101151.22
2022-12-25T14:24:40.110Z,101152.31
2022-12-25T14:27:17.569Z,101142.78
2022-12-25T14:29:45.844Z,101148.47
2022-12-25T14:32:15.856Z,101138.50
2022-12-25T14:34:46.074Z,101138.66
2022-12-25T14:37:18.350Z,101135.34
2022-12-25T14:39:47.999Z,101133.13
2022-12-25T14:42:23.967Z,101121.28
2022-12-25T14:45:01.658Z,101118.41
2022-12-25T14:47:28.910Z,101107.03
2022-12-25T14:49:55.569Z,101114.50
2022-12-25T14:52:29.569Z,101100.84
2022-12-25T14:54:59.579Z,101095.13
2022-12-25T14:57:38.967Z,101078.56
2022-12-25T15:00:22.003Z,101083.94
2022-12-25T15:02:49.712Z,101096.75
2022-12-25T15:05:42.764Z,101095.47
2022-12-25T15:08:10.215Z,101095.06
2022-12-25T15:13:25.629Z,101092.72
2022-12-25T15:16:04.809Z,101080.66
2022-12-25T15:18:36.342Z,101078.66
2022-12-25T15:21:02.855Z,101077.97
2022-12-25T15:23:29.523Z,101082.44
2022-12-25T15:25:56.085Z,101061.88
2022-12-25T15:28:22.672Z,101065.84
2022-12-25T15:30:50.053Z,101066.66
2022-12-25T15:33:17.962Z,101071.44
2022-12-25T15:35:44.705Z,101083.47
2022-12-25T15:38:12.415Z,101082.84
2022-12-25T15:40:39.674Z,101081.72
2022-12-25T15:43:11.455Z,101068.13
2022-12-25T15:45:49.035Z,101058.94
2022-12-25T15:48:15.557Z,101062.25
2022-12-25T15:50:42.771Z,101052.13
2022-12-25T15:53:10.706Z,101048.34
2022-12-25T15:55:37.189Z,101053.53
2022-12-25T15:58:03.699Z,101039.03
2022-12-25T16:00:30.507Z,101034.59
2022-12-25T16:02:57.250Z,101041.75
2022-12-25T16:05:24.647Z,101033.16
2022-12-25T16:07:51.196Z,101029.38
2022-12-25T16:10:19.379Z,101015.13
2022-12-25T16:12:46.522Z,101002.16
2022-12-25T16:15:14.638Z,101004.25
2022-12-25T16:17:41.762Z,101003.56
2022-12-25T16:20:08.814Z,100999.63
2022-12-25T16:22:39.956Z,101005.16
2022-12-25T16:25:18.414Z,101002.00
2022-12-25T16:27:45.098Z,101002.00
2022-12-25T16:30:14.029Z,100996.31
2022-12-25T16:32:42.196Z,100999.31
2022-12-25T16:35:09.684Z,100999.78
2022-12-25T16:37:36.903Z,100987.16
2022-12-25T16:40:04.129Z,100985.88
2022-12-25T16:42:30.707Z,100971.97
2022-12-25T16:44:57.238Z,100968.16
2022-12-25T16:47:23.747Z,100969.13
2022-12-25T16:50:16.379Z,100944.72
2022-12-25T16:52:42.896Z,100940.78
2022-12-25T16:55:09.864Z,100937.75
2022-12-25T16:57:36.422Z,100923.03
2022-12-25T17:00:02.965Z,100934.28
2022-12-25T17:02:29.799Z,100920.34
2022-12-25T17:04:56.432Z,100917.84
2022-12-25T17:07:22.987Z,100914.81
2022-12-25T17:09:49.819Z,100913.88
2022-12-25T17:12:16.718Z,100905.81
2022-12-25T17:14:43.200Z,100914.19
2022-12-25T17:17:09.669Z,100911.81
2022-12-25T17:19:36.819Z,100902.47
2022-12-25T17:22:03.511Z,100897.09
2022-12-25T17:24:30.104Z,100891.25
2022-12-25T17:26:56.604Z,100888.84
2022-12-25T17:29:25.015Z,100891.09
2022-12-25T17:31:51.620Z,100901.84
2022-12-25T17:34:18.387Z,100906.13
2022-12-25T17:36:44.929Z,100888.22
2022-12-25T17:39:11.563Z,100888.03
2022-12-25T17:41:38.123Z,100882.34
2022-12-25T17:44:05.027Z,100874.59
2022-12-25T17:46:32.088Z,100877.28
2022-12-25T17:49:00.411Z,100858.78
2022-12-25T17:51:28.600Z,100843.56
2022-12-25T17:53:58.326Z,100847.22
2022-12-25T17:56:25.675Z,100837.72
2022-12-25T17:58:57.820Z,100830.75
2022-12-25T18:01:25.775Z,100823.13
2022-12-25T18:03:52.785Z,100795.59
2022-12-25T18:06:21.907Z,100800.97
2022-12-25T18:08:49.210Z,100805.38
2022-12-25T18:11:21.032Z,100812.34
2022-12-25T18:13:49.935Z,100842.09
2022-12-25T18:16:17.271Z,100855.09
2022-12-25T18:18:51.407Z,100849.56
2022-12-25T18:21:18.999Z,100858.75
2022-12-25T18:23:46.357Z,100855.91
2022-12-25T18:26:13.203Z,100841.97
2022-12-25T18:28:40.166Z,100827.22
2022-12-25T18:31:13.613Z,100819.16
2022-12-25T18:33:42.017Z,100811.44
2022-12-25T18:36:09.090Z,100795.91
2022-12-25T18:38:38.518Z,100788.47
2022-12-25T18:41:06.395Z,100791.94
2022-12-25T18:43:53.693Z,100787.97
2022-12-25T18:46:22.374Z,100779.44
2022-12-25T18:48:49.212Z,100783.84
2022-12-25T18:51:15.679Z,100767.56
2022-12-25T18:53:42.167Z,100752.66
2022-12-25T18:56:12.091Z,100754.56
2022-12-25T18:58:39.296Z,100742.22
2022-12-25T19:01:16.268Z,100733.69
2022-12-25T19:03:43.144Z,100733.69
2022-12-25T19:06:09.816Z,100733.03
2022-12-25T19:08:36.445Z,100728.59
2022-12-25T19:11:06.925Z,100728.75
2022-12-25T19:13:33.406Z,100725.59
2022-12-25T19:16:00.576Z,100726.72
2022-12-25T19:18:27.177Z,100717.16
2022-12-25T19:20:53.668Z,100700.22
2022-12-25T19:23:20.165Z,100703.72
2022-12-25T19:25:46.733Z,100702.09
2022-12-25T19:28:13.236Z,100688.31
2022-12-25T19:30:39.874Z,100688.66
2022-12-25T19:33:07.444Z,100685.78
2022-12-25T19:35:40.302Z,100685.31
2022-12-25T19:38:06.852Z,100684.03
2022-12-25T19:40:37.414Z,100675.31
2022-12-25T19:43:04.065Z,100678.94
2022-12-25T19:45:30.619Z,100683.25
2022-12-25T19:48:01.092Z,100664.72
2022-12-25T19:50:31.852Z,100670.38
2022-12-25T19:52:58.376Z,100668.03
2022-12-25T19:55:24.914Z,100670.88
2022-12-25T19:57:51.531Z,100664.72
2022-12-25T20:00:18.117Z,100664.53
2022-12-25T20:02:44.693Z,100664.53
2022-12-25T20:05:11.374Z,100651.53
2022-12-25T20:07:38.012Z,100659.22
2022-12-25T20:10:04.674Z,100664.00
2022-12-25T20:12:31.947Z,100656.91
2022-12-25T20:14:58.801Z,100647.06
2022-12-25T20:17:25.404Z,100651.72
2022-12-25T20:19:51.870Z,100652.91
2022-12-25T20:22:18.379Z,100654.47
2022-12-25T20:24:44.850Z,100650.88
2022-12-25T20:27:11.323Z,100656.47
2022-12-25T20:29:37.810Z,100645.28
2022-12-25T20:32:04.924Z,100638.94
2022-12-25T20:34:31.682Z,100628.44
2022-12-25T20:36:58.179Z,100637.38
2022-12-25T20:39:24.691Z,100633.59
2022-12-25T20:41:51.574Z,100624.84
2022-12-25T20:44:18.144Z,100622.47
2022-12-25T20:46:45.908Z,100626.78
2022-12-25T20:49:13.103Z,100628.47
2022-12-25T20:51:39.795Z,100621.66
2022-12-25T20:54:07.977Z,100619.69
2022-12-25T20:56:34.813Z,100612.66
2022-12-25T20:59:02.185Z,100608.50
2022-12-25T21:01:31.058Z,100604.13
2022-12-25T21:03:58.410Z,100600.78
2022-12-25T21:06:25.015Z,100597.94
2022-12-25T21:08:51.639Z,100592.13
2022-12-25T21:11:18.534Z,100597.34
2022-12-25T21:13:46.066Z,100588.00
2022-12-25T21:16:19.716Z,100576.78
2022-12-25T21:18:47.059Z,100586.22
2022-12-25T21:21:14.314Z,100579.59
2022-12-25T21:23:41.039Z,100582.72
2022-12-25T21:26:21.094Z,100578.78
2022-12-25T21:28:49.102Z,100582.66
2022-12-25T21:31:15.825Z,100579.97
2022-12-25T21:33:51.520Z,100587.84
2022-12-25T21:36:20.276Z,100577.19
2022-12-25T21:38:46.814Z,100586.16
2022-12-25T21:41:14.418Z,100569.19
2022-12-25T21:43:42.791Z,100569.44
2022-12-25T21:46:12.796Z,100556.22
2022-12-25T21:48:40.362Z,100568.94
2022-12-25T21:51:47.236Z,100563.66
2022-12-25T21:54:14.741Z,100572.63
2022-12-25T21:56:44.990Z,100557.94
2022-12-25T21:59:14.883Z,100569.06
2022-12-25T22:01:41.462Z,100567.28
2022-12-25T22:04:10.840Z,100569.72
2022-12-25T22:06:56.298Z,100575.84
2022-12-25T22:09:23.394Z,100583.63
2022-12-25T22:12:08.488Z,100563.59
2022-12-25T22:14:54.244Z,100573.38
2022-12-25T22:17:44.019Z,100577.66
2022-12-25T22:20:17.251Z,100573.16
2022-12-25T22:22:44.306Z,100575.28
2022-12-25T22:25:11.919Z,100575.75
2022-12-25T22:27:39.980Z,100575.97
2022-12-25T22:30:11.549Z,100566.44
2022-12-25T22:32:38.088Z,100548.91
2022-12-25T22:35:05.104Z,100555.19
2022-12-25T22:37:32.336Z,100561.03
2022-12-25T22:40:02.172Z,100563.06
2022-12-25T22:42:28.762Z,100553.16
2022-12-25T22:44:55.275Z,100557.44
2022-12-25T22:47:23.830Z,100549.81
2022-12-25T22:49:50.388Z,100547.78
2022-12-25T22:52:16.908Z,100540.81
2022-12-25T22:54:43.451Z,100552.41
2022-12-25T22:57:09.974Z,100544.09
2022-12-25T22:59:36.502Z,100536.75
2022-12-25T23:02:03.085Z,100540.69
2022-12-25T23:04:29.708Z,100525.41
2022-12-25T23:06:56.581Z,100524.63
2022-12-25T23:09:27.807Z,100516.09
2022-12-25T23:11:56.226Z,100514.53
2022-12-25T23:14:41.791Z,100503.03
2022-12-25T23:17:31.687Z,100501.56
2022-12-25T23:20:17.989Z,100502.47
2022-12-25T23:23:04.240Z,100508.19
2022-12-25T23:25:49.445Z,100508.91
2022-12-25T23:28:35.943Z,100509.34
2022-12-25T23:31:02.469Z,100507.06
2022-12-25T23:33:29.076Z,100505.84
2022-12-25T23:35:55.562Z,100507.31
2022-12-25T23:38:22.137Z,100511.09
2022-12-25T23:40:48.642Z,100506.38
2022-12-25T23:43:15.137Z,100510.91
2022-12-25T23:45:41.721Z,100521.31
2022-12-25T23:48:08.593Z,100507.94
2022-12-25T23:50:35.128Z,100515.06
2022-12-25T23:53:01.657Z,100528.31
2022-12-25T23:55:28.204Z,100531.34
2022-12-25T23:57:54.713Z,100528.88
